createdAt,value
2019-04-10T00:02:01.911Z,1.50
2019-04-10T00:06:06.660Z,1.50
2019-04-10T00:10:11.784Z,1.40
2019-04-10T00:14:16.423Z,1.30
2019-04-10T00:18:20.114Z,1.00
2019-04-10T00:22:24.320Z,0.80
2019-04-10T00:26:27.981Z,0.50
2019-04-10T00:30:31.559Z,0.40
2019-04-10T00:34:35.827Z,0.30
2019-04-10T00:38:39.981Z,-0.10
2019-04-10T00:42:43.708Z,0.00
2019-04-10T00:46:47.287Z,-0.10
2019-04-10T00:50:50.973Z,0.00
2019-04-10T00:54:55.358Z,0.00
2019-04-10T00:58:59.607Z,0.00
2019-04-10T01:03:03.255Z,-0.20
2019-04-10T01:07:06.840Z,-0.20
2019-04-10T01:11:10.673Z,-0.40
2019-04-10T01:15:14.391Z,-0.30
2019-04-10T01:19:20.781Z,-0.20
2019-04-10T01:23:24.778Z,-0.20
2019-04-10T01:27:28.437Z,-0.20
2019-04-10T01:31:32.061Z,-0.20
2019-04-10T01:35:35.627Z,-0.30
2019-04-10T01:39:40.189Z,-0.30
2019-04-10T01:43:43.927Z,-0.40
2019-04-10T01:47:47.648Z,-0.50
2019-04-10T01:51:51.873Z,-0.40
2019-04-10T01:55:55.636Z,-0.30
2019-04-10T01:59:59.178Z,-0.30
2019-04-10T02:04:02.772Z,-0.30
2019-04-10T02:08:09.016Z,-0.20
2019-04-10T02:12:12.473Z,-0.20
2019-04-10T02:16:16.733Z,-0.30
2019-04-10T02:20:21.027Z,-0.30
2019-04-10T02:24:25.221Z,-0.20
2019-04-10T02:28:29.169Z,-0.30
2019-04-10T02:32:32.715Z,-0.20
2019-04-10T02:36:36.404Z,-0.30
2019-04-10T02:40:41.553Z,-0.20
2019-04-10T02:44:45.875Z,-0.20
2019-04-10T02:48:50.089Z,-0.20
2019-04-10T02:52:54.933Z,-0.20
2019-04-10T02:56:58.773Z,-0.30
2019-04-10T03:01:03.182Z,-0.30
2019-04-10T03:05:07.257Z,-0.30
2019-04-10T03:09:30.527Z,-0.20
2019-04-10T03:13:17.421Z,-0.20
2019-04-10T03:17:21.568Z,-0.10
2019-04-10T03:21:25.147Z,0.10
2019-04-10T03:25:28.905Z,0.20
2019-04-10T03:29:32.674Z,0.30
2019-04-10T03:33:46.667Z,0.30
2019-04-10T03:37:46.661Z,0.40
2019-04-10T03:41:50.915Z,0.40
2019-04-10T03:45:55.110Z,0.40
2019-04-10T03:49:58.783Z,0.30
2019-04-10T03:54:02.716Z,0.30
2019-04-10T03:58:07.138Z,0.30
2019-04-10T04:02:11.619Z,0.10
2019-04-10T04:06:15.490Z,0.10
2019-04-10T04:10:20.395Z,0.00
2019-04-10T04:14:24.237Z,0.00
2019-04-10T04:18:28.887Z,-0.10
2019-04-10T04:22:32.704Z,-0.10
2019-04-10T04:26:37.182Z,-0.20
2019-04-10T04:30:41.926Z,-0.20
2019-04-10T04:34:45.592Z,-0.20
2019-04-10T04:38:49.232Z,-0.10
2019-04-10T04:42:53.587Z,-0.10
2019-04-10T04:46:57.515Z,-0.10
2019-04-10T04:51:01.371Z,-0.10
2019-04-10T04:55:05.946Z,-0.10
2019-04-10T04:59:10.199Z,-0.10
2019-04-10T05:03:13.857Z,0.10
2019-04-10T05:07:17.926Z,0.20
2019-04-10T05:11:22.332Z,0.20
2019-04-10T05:15:26.904Z,0.30
2019-04-10T05:19:30.545Z,0.50
2019-04-10T05:23:35.060Z,0.80
2019-04-10T05:27:39.264Z,0.80
2019-04-10T05:31:42.910Z,0.80
2019-04-10T05:35:46.491Z,0.90
2019-04-10T05:39:51.991Z,0.90
2019-04-10T05:43:55.397Z,1.00
2019-04-10T05:47:59.071Z,1.10
2019-04-10T05:52:02.691Z,1.20
2019-04-10T05:56:06.699Z,1.30
2019-04-10T06:00:12.426Z,1.70
2019-04-10T06:04:16.895Z,2.10
2019-04-10T06:08:21.505Z,2.50
2019-04-10T06:12:26.401Z,2.90
2019-04-10T06:16:30.333Z,3.20
2019-04-10T06:20:33.929Z,3.40
2019-04-10T06:24:38.481Z,3.70
2019-04-10T06:28:42.260Z,3.80
2019-04-10T06:32:45.964Z,3.90
2019-04-10T06:36:49.559Z,4.20
2019-04-10T06:44:58.586Z,4.60
2019-04-10T06:49:03.090Z,5.20
2019-04-10T06:53:06.780Z,5.20
2019-04-10T06:57:10.471Z,5.60
2019-04-10T07:01:14.795Z,5.90
2019-04-10T07:05:18.393Z,6.20
2019-04-10T07:09:25.177Z,6.30
2019-04-10T07:13:30.082Z,6.70
2019-04-10T07:17:38.321Z,7.30
2019-04-10T07:21:39.183Z,7.50
2019-04-10T07:25:45.520Z,7.80
2019-04-10T07:29:50.836Z,8.20
2019-04-10T07:33:53.627Z,8.30
2019-04-10T07:37:58.469Z,8.50
2019-04-10T07:42:04.061Z,8.80
2019-04-10T07:46:07.951Z,8.70
2019-04-10T07:50:12.215Z,9.30
2019-04-10T07:54:20.825Z,9.40
2019-04-10T07:58:23.627Z,9.40
2019-04-10T08:02:27.587Z,9.50
2019-04-10T08:06:31.192Z,9.40
2019-04-10T08:10:34.860Z,9.20
2019-04-10T08:14:38.455Z,9.00
2019-04-10T08:18:42.052Z,9.20
2019-04-10T08:22:46.763Z,9.70
2019-04-10T08:26:50.592Z,10.30
2019-04-10T08:30:54.674Z,10.50
2019-04-10T08:34:58.554Z,10.10
2019-04-10T08:39:02.633Z,9.70
2019-04-10T08:43:06.370Z,9.70
2019-04-10T08:47:11.033Z,9.80
2019-04-10T08:51:14.937Z,9.40
2019-04-10T08:55:18.734Z,9.20
2019-04-10T08:59:23.585Z,9.10
2019-04-10T09:03:27.329Z,9.00
2019-04-10T09:07:30.912Z,9.60
2019-04-10T09:11:35.396Z,9.70
2019-04-10T09:15:40.188Z,10.00
2019-04-10T09:19:44.360Z,9.80
2019-04-10T09:23:52.880Z,10.60
2019-04-10T09:27:53.907Z,10.70
2019-04-10T09:31:57.786Z,11.00
2019-04-10T09:36:02.638Z,11.00
2019-04-10T09:40:12.342Z,10.60
2019-04-10T09:44:16.482Z,10.20
2019-04-10T09:48:27.131Z,10.50
2019-04-10T09:57:32.170Z,10.90
2019-04-10T10:01:20.096Z,10.60
2019-04-10T10:05:23.787Z,9.80
2019-04-10T10:09:29.145Z,10.10
2019-04-10T10:13:32.571Z,10.20
2019-04-10T10:17:37.076Z,10.50
2019-04-10T10:21:40.864Z,10.70
2019-04-10T10:25:45.637Z,10.80
2019-04-10T10:29:50.351Z,11.10
2019-04-10T10:33:55.103Z,11.00
2019-04-10T10:37:59.276Z,11.00
2019-04-10T10:42:03.308Z,11.10
2019-04-10T10:46:07.239Z,11.40
2019-04-10T10:50:11.584Z,11.40
2019-04-10T10:54:15.163Z,11.30
2019-04-10T10:58:19.667Z,11.30
2019-04-10T11:02:23.404Z,11.20
2019-04-10T11:06:27.087Z,10.60
2019-04-10T11:10:31.431Z,10.70
2019-04-10T11:14:35.469Z,10.90
2019-04-10T11:18:40.314Z,11.20
2019-04-10T11:22:44.874Z,10.90
2019-04-10T11:26:50.201Z,11.00
2019-04-10T11:30:53.755Z,11.10
2019-04-10T11:34:57.340Z,10.80
2019-04-10T11:39:11.906Z,10.50
2019-04-10T11:43:07.678Z,10.60
2019-04-10T11:47:12.472Z,10.80
2019-04-10T11:51:16.485Z,10.90
2019-04-10T11:55:25.092Z,10.90
2019-04-10T11:59:26.247Z,10.80
2019-04-10T12:03:31.350Z,10.60
2019-04-10T12:11:41.541Z,10.50
2019-04-10T12:15:45.207Z,10.70
2019-04-10T12:19:48.818Z,10.80
2019-04-10T12:23:53.413Z,10.80
2019-04-10T12:27:57.793Z,10.90
2019-04-10T12:32:01.562Z,10.70
2019-04-10T12:36:07.664Z,10.40
2019-04-10T12:40:11.839Z,10.50
2019-04-10T12:44:15.854Z,10.40
2019-04-10T12:48:19.476Z,10.50
2019-04-10T12:52:23.076Z,10.70
2019-04-10T12:56:26.675Z,10.70
2019-04-10T13:00:30.278Z,10.60
2019-04-10T13:04:33.862Z,10.70
2019-04-10T13:08:52.598Z,10.70
2019-04-10T13:12:42.712Z,10.70
2019-04-10T13:16:46.355Z,10.70
2019-04-10T13:20:50.295Z,10.90
2019-04-10T13:24:54.153Z,10.60
2019-04-10T13:28:58.108Z,10.70
2019-04-10T13:33:02.562Z,10.50
2019-04-10T13:37:06.294Z,10.10
2019-04-10T13:41:10.325Z,10.20
2019-04-10T13:45:17.437Z,10.50
2019-04-10T13:49:21.979Z,10.40
2019-04-10T13:53:26.126Z,10.40
2019-04-10T13:57:30.643Z,10.40
2019-04-10T14:01:35.734Z,10.70
2019-04-10T14:05:39.348Z,10.50
2019-04-10T14:09:48.422Z,10.50
2019-04-10T14:13:48.366Z,10.40
2019-04-10T14:17:52.170Z,10.50
2019-04-10T14:21:55.803Z,10.70
2019-04-10T14:26:17.549Z,10.50
2019-04-10T14:30:32.135Z,10.50
2019-04-10T14:34:36.660Z,10.40
2019-04-10T14:38:41.212Z,10.50
2019-04-10T14:42:45.179Z,10.70
2019-04-10T14:46:49.691Z,10.60
2019-04-10T14:50:53.328Z,10.70
2019-04-10T14:54:57.033Z,10.60
2019-04-10T14:59:01.087Z,10.70
2019-04-10T15:03:06.455Z,11.00
2019-04-10T15:07:10.193Z,11.20
2019-04-10T15:11:14.162Z,11.10
2019-04-10T15:15:18.663Z,10.90
2019-04-10T15:19:22.852Z,10.90
2019-04-10T15:23:27.434Z,10.90
2019-04-10T15:27:31.328Z,10.80
2019-04-10T15:31:35.456Z,10.50
2019-04-10T15:35:39.571Z,10.30
2019-04-10T15:39:44.589Z,10.40
2019-04-10T15:43:48.315Z,10.60
2019-04-10T15:47:54.564Z,10.70
2019-04-10T15:51:57.272Z,10.60
2019-04-10T15:56:01.315Z,10.40
2019-04-10T16:00:10.638Z,10.40
2019-04-10T16:04:14.951Z,10.50
2019-04-10T16:08:20.347Z,10.60
2019-04-10T16:12:25.030Z,10.70
2019-04-10T16:16:36.850Z,10.50
2019-04-10T16:20:41.194Z,10.30
2019-04-10T16:24:45.034Z,10.20
2019-04-10T16:28:48.670Z,10.10
2019-04-10T16:32:52.354Z,9.90
2019-04-10T16:36:56.108Z,9.90
2019-04-10T16:41:00.484Z,9.70
2019-04-10T16:45:06.325Z,9.70
2019-04-10T16:49:10.641Z,9.60
2019-04-10T16:53:14.267Z,9.70
2019-04-10T16:57:18.514Z,9.40
2019-04-10T17:01:22.527Z,9.30
2019-04-10T17:05:26.362Z,9.10
2019-04-10T17:09:30.305Z,9.10
2019-04-10T17:13:34.869Z,8.80
2019-04-10T17:17:38.831Z,8.60
2019-04-10T17:21:42.644Z,8.60
2019-04-10T17:25:48.608Z,8.50
2019-04-10T17:29:51.590Z,8.50
2019-04-10T17:33:56.490Z,8.40
2019-04-10T17:38:00.308Z,8.30
2019-04-10T17:42:04.101Z,8.20
2019-04-10T17:46:09.099Z,8.20
2019-04-10T17:50:16.129Z,8.10
2019-04-10T17:54:20.105Z,8.10
2019-04-10T17:58:23.833Z,8.00
2019-04-10T18:02:27.664Z,7.90
2019-04-10T18:06:31.585Z,7.80
2019-04-10T18:10:46.508Z,7.70
2019-04-10T18:14:42.535Z,7.60
2019-04-10T18:18:47.322Z,7.50
2019-04-10T18:22:53.250Z,7.40
2019-04-10T18:26:58.416Z,7.30
2019-04-10T18:31:02.819Z,7.20
2019-04-10T18:35:08.771Z,7.10
2019-04-10T18:39:15.717Z,6.90
2019-04-10T18:43:22.248Z,6.80
2019-04-10T18:47:27.028Z,6.80
2019-04-10T18:51:32.020Z,6.70
2019-04-10T18:55:36.450Z,6.60
2019-04-10T18:59:49.062Z,6.60
2019-04-10T19:03:58.268Z,6.50
2019-04-10T19:08:00.803Z,6.50
2019-04-10T19:12:04.723Z,6.40
2019-04-10T19:16:08.805Z,6.30
2019-04-10T19:20:13.509Z,6.20
2019-04-10T19:24:17.809Z,6.10
2019-04-10T19:28:30.302Z,6.00
2019-04-10T19:32:30.048Z,5.90
2019-04-10T19:36:34.421Z,5.80
2019-04-10T19:40:38.722Z,5.70
2019-04-10T19:44:43.518Z,5.50
2019-04-10T19:48:49.867Z,5.40
2019-04-10T19:52:52.842Z,5.30
2019-04-10T19:56:57.114Z,5.00
2019-04-10T20:01:01.124Z,4.90
2019-04-10T20:05:07.414Z,4.70
2019-04-10T20:09:11.108Z,4.60
2019-04-10T20:13:14.683Z,4.70
2019-04-10T20:17:18.352Z,4.70
2019-04-10T20:21:26.483Z,4.70
2019-04-10T20:25:32.543Z,4.70
2019-04-10T20:29:35.265Z,4.60
2019-04-10T20:33:38.901Z,4.60
2019-04-10T20:37:42.947Z,4.50
2019-04-10T20:41:52.334Z,4.50
2019-04-10T20:45:51.835Z,4.50
2019-04-10T20:49:55.430Z,4.40
2019-04-10T20:54:00.100Z,4.30
2019-04-10T20:58:06.143Z,4.20
2019-04-10T21:02:09.674Z,4.10
2019-04-10T21:06:13.438Z,4.10
2019-04-10T21:10:17.179Z,4.10
2019-04-10T21:14:21.114Z,4.10
2019-04-10T21:18:24.796Z,4.10
2019-04-10T21:22:28.667Z,4.10
2019-04-10T21:26:32.516Z,4.10
2019-04-10T21:30:37.733Z,4.10
2019-04-10T21:34:42.734Z,4.10
2019-04-10T21:38:48.915Z,4.20
2019-04-10T21:42:51.931Z,4.20
2019-04-10T21:46:55.604Z,4.20
2019-04-10T21:50:59.198Z,4.30
2019-04-10T21:55:04.435Z,4.30
2019-04-10T21:59:09.041Z,4.30
2019-04-10T22:03:13.487Z,4.40
2019-04-10T22:07:25.703Z,4.40
2019-04-10T22:11:30.817Z,4.40
2019-04-10T22:15:41.783Z,4.40
2019-04-10T22:19:45.538Z,4.30
2019-04-10T22:23:49.231Z,4.40
2019-04-10T22:27:52.803Z,4.40
2019-04-10T22:31:56.400Z,4.40
2019-04-10T22:36:00.194Z,4.40
2019-04-10T22:40:05.199Z,4.40
2019-04-10T22:44:09.769Z,4.60
2019-04-10T22:48:14.607Z,4.70
2019-04-10T22:52:18.219Z,4.80
2019-04-10T22:56:23.093Z,4.90
2019-04-10T23:00:33.028Z,5.00
2019-04-10T23:04:37.013Z,5.00
2019-04-10T23:08:40.595Z,5.00
2019-04-10T23:12:57.137Z,5.10
2019-04-10T23:16:48.614Z,5.10
2019-04-10T23:20:52.207Z,5.10
2019-04-10T23:24:56.059Z,5.10
2019-04-10T23:29:00.009Z,5.10
2019-04-10T23:33:03.908Z,5.10
2019-04-10T23:37:08.767Z,5.10
2019-04-10T23:41:13.570Z,5.00
2019-04-10T23:45:17.663Z,5.10
2019-04-10T23:49:21.546Z,5.00
2019-04-10T23:53:25.124Z,5.00
2019-04-10T23:57:29.487Z,5.00
